sensor_id;sensor_type;location;lat;lon;timestamp;P1;durP1;ratioP1;P2;durP2;ratioP2
18780;SDS011;9519;51.890;8.970;2023-03-04T00:02:38;34.10;;;13.93;;
18780;SDS011;9519;51.890;8.970;2023-03-04T00:07:40;26.73;;;12.00;;
18780;SDS011;9519;51.890;8.970;2023-03-04T00:12:42;29.83;;;12.47;;
18780;SDS011;9519;51.890;8.970;2023-03-04T00:17:46;29.20;;;9.53;;
18780;SDS011;9519;51.890;8.970;2023-03-04T00:22:48;33.57;;;12.20;;
18780;SDS011;9519;51.890;8.970;2023-03-04T00:27:50;30.40;;;12.73;;
18780;SDS011;9519;51.890;8.970;2023-03-04T00:32:53;29.23;;;11.83;;
18780;SDS011;9519;51.890;8.970;2023-03-04T00:37:56;37.73;;;12.10;;
18780;SDS011;9519;51.890;8.970;2023-03-04T00:42:58;28.83;;;11.10;;
18780;SDS011;9519;51.890;8.970;2023-03-04T00:48:01;26.33;;;9.80;;
18780;SDS011;9519;51.890;8.970;2023-03-04T00:53:03;31.13;;;8.67;;
18780;SDS011;9519;51.890;8.970;2023-03-04T00:58:06;24.43;;;7.57;;
18780;SDS011;9519;51.890;8.970;2023-03-04T01:03:09;26.03;;;8.30;;
18780;SDS011;9519;51.890;8.970;2023-03-04T01:08:11;27.57;;;7.63;;
18780;SDS011;9519;51.890;8.970;2023-03-04T01:13:13;22.53;;;7.10;;
18780;SDS011;9519;51.890;8.970;2023-03-04T01:18:17;22.60;;;7.47;;
18780;SDS011;9519;51.890;8.970;2023-03-04T01:23:19;28.50;;;8.27;;
18780;SDS011;9519;51.890;8.970;2023-03-04T01:28:21;26.87;;;8.07;;
18780;SDS011;9519;51.890;8.970;2023-03-04T01:33:24;26.67;;;8.03;;
18780;SDS011;9519;51.890;8.970;2023-03-04T01:38:26;29.03;;;7.00;;
18780;SDS011;9519;51.890;8.970;2023-03-04T01:43:29;21.40;;;5.97;;
18780;SDS011;9519;51.890;8.970;2023-03-04T01:48:34;25.73;;;5.17;;
18780;SDS011;9519;51.890;8.970;2023-03-04T01:53:38;21.23;;;4.97;;
18780;SDS011;9519;51.890;8.970;2023-03-04T01:58:41;22.77;;;5.20;;
18780;SDS011;9519;51.890;8.970;2023-03-04T02:03:44;26.80;;;5.37;;
18780;SDS011;9519;51.890;8.970;2023-03-04T02:08:46;17.80;;;4.43;;
18780;SDS011;9519;51.890;8.970;2023-03-04T02:13:48;23.00;;;4.23;;
18780;SDS011;9519;51.890;8.970;2023-03-04T02:18:53;21.73;;;4.47;;
18780;SDS011;9519;51.890;8.970;2023-03-04T02:23:58;24.27;;;5.57;;
18780;SDS011;9519;51.890;8.970;2023-03-04T02:29:12;24.00;;;4.80;;
18780;SDS011;9519;51.890;8.970;2023-03-04T02:34:18;24.53;;;5.33;;
18780;SDS011;9519;51.890;8.970;2023-03-04T02:39:24;21.20;;;5.83;;
18780;SDS011;9519;51.890;8.970;2023-03-04T02:44:34;22.60;;;5.13;;
18780;SDS011;9519;51.890;8.970;2023-03-04T02:49:39;26.87;;;5.20;;
18780;SDS011;9519;51.890;8.970;2023-03-04T02:54:42;24.50;;;4.37;;
18780;SDS011;9519;51.890;8.970;2023-03-04T02:59:45;24.90;;;3.93;;
18780;SDS011;9519;51.890;8.970;2023-03-04T03:04:47;19.50;;;3.60;;
18780;SDS011;9519;51.890;8.970;2023-03-04T03:09:49;15.67;;;3.77;;
18780;SDS011;9519;51.890;8.970;2023-03-04T03:14:55;21.40;;;4.30;;
18780;SDS011;9519;51.890;8.970;2023-03-04T03:19:58;12.37;;;3.50;;
18780;SDS011;9519;51.890;8.970;2023-03-04T03:25:00;29.10;;;5.73;;
18780;SDS011;9519;51.890;8.970;2023-03-04T03:30:05;20.67;;;3.57;;
18780;SDS011;9519;51.890;8.970;2023-03-04T03:35:09;25.40;;;4.03;;
18780;SDS011;9519;51.890;8.970;2023-03-04T03:40:12;20.27;;;4.53;;
18780;SDS011;9519;51.890;8.970;2023-03-04T03:45:16;29.07;;;4.27;;
18780;SDS011;9519;51.890;8.970;2023-03-04T03:50:18;12.97;;;3.87;;
18780;SDS011;9519;51.890;8.970;2023-03-04T03:55:20;17.93;;;3.47;;
18780;SDS011;9519;51.890;8.970;2023-03-04T04:00:24;20.57;;;3.60;;
18780;SDS011;9519;51.890;8.970;2023-03-04T04:05:26;18.50;;;3.70;;
18780;SDS011;9519;51.890;8.970;2023-03-04T04:10:28;20.23;;;3.30;;
18780;SDS011;9519;51.890;8.970;2023-03-04T04:15:32;19.70;;;4.07;;
18780;SDS011;9519;51.890;8.970;2023-03-04T04:20:34;20.17;;;3.90;;
18780;SDS011;9519;51.890;8.970;2023-03-04T04:25:36;19.43;;;3.67;;
18780;SDS011;9519;51.890;8.970;2023-03-04T04:30:39;23.80;;;3.47;;
18780;SDS011;9519;51.890;8.970;2023-03-04T04:35:42;17.33;;;3.10;;
18780;SDS011;9519;51.890;8.970;2023-03-04T04:40:44;13.00;;;2.70;;
18780;SDS011;9519;51.890;8.970;2023-03-04T04:45:47;12.73;;;3.13;;
18780;SDS011;9519;51.890;8.970;2023-03-04T04:50:52;18.47;;;3.53;;
18780;SDS011;9519;51.890;8.970;2023-03-04T04:55:55;16.03;;;3.07;;
18780;SDS011;9519;51.890;8.970;2023-03-04T05:00:59;12.53;;;3.50;;
18780;SDS011;9519;51.890;8.970;2023-03-04T05:06:01;13.60;;;2.47;;
18780;SDS011;9519;51.890;8.970;2023-03-04T05:11:05;17.30;;;3.03;;
18780;SDS011;9519;51.890;8.970;2023-03-04T05:16:10;17.83;;;2.73;;
18780;SDS011;9519;51.890;8.970;2023-03-04T05:21:12;11.53;;;2.43;;
18780;SDS011;9519;51.890;8.970;2023-03-04T05:26:15;17.17;;;3.63;;
18780;SDS011;9519;51.890;8.970;2023-03-04T05:31:19;16.90;;;2.80;;
18780;SDS011;9519;51.890;8.970;2023-03-04T05:36:22;11.23;;;2.77;;
18780;SDS011;9519;51.890;8.970;2023-03-04T05:41:24;12.60;;;2.90;;
18780;SDS011;9519;51.890;8.970;2023-03-04T05:46:27;12.87;;;2.83;;
18780;SDS011;9519;51.890;8.970;2023-03-04T05:51:30;13.87;;;2.60;;
18780;SDS011;9519;51.890;8.970;2023-03-04T05:56:31;13.87;;;3.20;;
18780;SDS011;9519;51.890;8.970;2023-03-04T06:01:35;17.30;;;3.53;;
18780;SDS011;9519;51.890;8.970;2023-03-04T06:06:37;13.23;;;2.80;;
18780;SDS011;9519;51.890;8.970;2023-03-04T06:11:39;11.63;;;3.23;;
18780;SDS011;9519;51.890;8.970;2023-03-04T06:16:45;15.43;;;3.30;;
18780;SDS011;9519;51.890;8.970;2023-03-04T06:21:47;17.03;;;3.93;;
18780;SDS011;9519;51.890;8.970;2023-03-04T06:26:49;12.50;;;3.03;;
18780;SDS011;9519;51.890;8.970;2023-03-04T06:31:53;16.23;;;2.83;;
18780;SDS011;9519;51.890;8.970;2023-03-04T06:36:55;17.53;;;3.10;;
18780;SDS011;9519;51.890;8.970;2023-03-04T06:41:57;15.47;;;3.67;;
18780;SDS011;9519;51.890;8.970;2023-03-04T06:47:01;13.27;;;2.70;;
18780;SDS011;9519;51.890;8.970;2023-03-04T06:52:03;13.77;;;2.77;;
18780;SDS011;9519;51.890;8.970;2023-03-04T06:57:06;11.47;;;2.90;;
18780;SDS011;9519;51.890;8.970;2023-03-04T07:02:10;11.43;;;3.40;;
18780;SDS011;9519;51.890;8.970;2023-03-04T07:07:13;9.67;;;2.63;;
18780;SDS011;9519;51.890;8.970;2023-03-04T07:12:15;12.20;;;3.03;;
18780;SDS011;9519;51.890;8.970;2023-03-04T07:17:18;11.03;;;3.43;;
18780;SDS011;9519;51.890;8.970;2023-03-04T07:22:20;13.33;;;3.23;;
18780;SDS011;9519;51.890;8.970;2023-03-04T07:27:22;13.97;;;2.83;;
18780;SDS011;9519;51.890;8.970;2023-03-04T07:32:25;10.13;;;2.73;;
18780;SDS011;9519;51.890;8.970;2023-03-04T07:37:28;14.93;;;3.43;;
18780;SDS011;9519;51.890;8.970;2023-03-04T07:42:30;10.50;;;3.23;;
18780;SDS011;9519;51.890;8.970;2023-03-04T07:47:33;10.73;;;3.67;;
18780;SDS011;9519;51.890;8.970;2023-03-04T07:52:36;16.53;;;3.67;;
18780;SDS011;9519;51.890;8.970;2023-03-04T07:57:39;14.77;;;3.93;;
18780;SDS011;9519;51.890;8.970;2023-03-04T08:02:44;8.53;;;3.60;;
18780;SDS011;9519;51.890;8.970;2023-03-04T08:07:46;9.33;;;3.43;;
18780;SDS011;9519;51.890;8.970;2023-03-04T08:12:48;20.97;;;4.03;;
18780;SDS011;9519;51.890;8.970;2023-03-04T08:17:51;14.10;;;6.47;;
18780;SDS011;9519;51.890;8.970;2023-03-04T08:22:53;12.03;;;4.80;;
18780;SDS011;9519;51.890;8.970;2023-03-04T08:27:56;12.67;;;4.20;;
18780;SDS011;9519;51.890;8.970;2023-03-04T08:33:01;15.77;;;7.23;;
18780;SDS011;9519;51.890;8.970;2023-03-04T08:38:04;14.27;;;6.87;;
18780;SDS011;9519;51.890;8.970;2023-03-04T08:43:06;17.77;;;5.40;;
18780;SDS011;9519;51.890;8.970;2023-03-04T08:48:11;13.03;;;5.20;;
18780;SDS011;9519;51.890;8.970;2023-03-04T08:53:13;19.03;;;5.17;;
18780;SDS011;9519;51.890;8.970;2023-03-04T08:58:16;13.70;;;5.17;;
18780;SDS011;9519;51.890;8.970;2023-03-04T09:03:20;8.50;;;4.10;;
18780;SDS011;9519;51.890;8.970;2023-03-04T09:08:22;10.40;;;3.80;;
18780;SDS011;9519;51.890;8.970;2023-03-04T09:13:24;13.40;;;4.23;;
18780;SDS011;9519;51.890;8.970;2023-03-04T09:18:31;11.03;;;3.87;;
18780;SDS011;9519;51.890;8.970;2023-03-04T09:23:33;12.53;;;3.80;;
18780;SDS011;9519;51.890;8.970;2023-03-04T09:28:35;8.07;;;3.70;;
18780;SDS011;9519;51.890;8.970;2023-03-04T09:33:39;11.13;;;3.20;;
18780;SDS011;9519;51.890;8.970;2023-03-04T09:38:42;9.87;;;4.00;;
18780;SDS011;9519;51.890;8.970;2023-03-04T09:43:45;10.50;;;3.20;;
18780;SDS011;9519;51.890;8.970;2023-03-04T09:48:51;7.23;;;2.70;;
18780;SDS011;9519;51.890;8.970;2023-03-04T09:53:58;8.07;;;3.33;;
18780;SDS011;9519;51.890;8.970;2023-03-04T09:59:10;6.10;;;2.47;;
18780;SDS011;9519;51.890;8.970;2023-03-04T10:04:35;7.27;;;2.60;;
18780;SDS011;9519;51.890;8.970;2023-03-04T10:09:48;6.90;;;2.93;;
18780;SDS011;9519;51.890;8.970;2023-03-04T10:15:00;6.33;;;3.13;;
18780;SDS011;9519;51.890;8.970;2023-03-04T10:20:10;13.27;;;3.87;;
18780;SDS011;9519;51.890;8.970;2023-03-04T10:25:21;7.40;;;3.73;;
18780;SDS011;9519;51.890;8.970;2023-03-04T10:30:29;8.17;;;3.20;;
18780;SDS011;9519;51.890;8.970;2023-03-04T10:35:44;8.50;;;3.43;;
18780;SDS011;9519;51.890;8.970;2023-03-04T10:40:50;6.90;;;2.50;;
18780;SDS011;9519;51.890;8.970;2023-03-04T10:45:53;5.23;;;2.53;;
18780;SDS011;9519;51.890;8.970;2023-03-04T10:51:10;7.17;;;2.50;;
18780;SDS011;9519;51.890;8.970;2023-03-04T10:56:30;6.10;;;2.03;;
18780;SDS011;9519;51.890;8.970;2023-03-04T11:01:36;4.03;;;2.00;;
18780;SDS011;9519;51.890;8.970;2023-03-04T11:06:40;4.30;;;2.00;;
18780;SDS011;9519;51.890;8.970;2023-03-04T11:11:42;4.20;;;1.63;;
18780;SDS011;9519;51.890;8.970;2023-03-04T11:16:50;3.03;;;1.40;;
18780;SDS011;9519;51.890;8.970;2023-03-04T11:21:57;3.00;;;1.73;;
18780;SDS011;9519;51.890;8.970;2023-03-04T11:27:02;2.70;;;1.43;;
18780;SDS011;9519;51.890;8.970;2023-03-04T11:32:13;3.63;;;1.80;;
18780;SDS011;9519;51.890;8.970;2023-03-04T11:37:23;5.23;;;1.90;;
18780;SDS011;9519;51.890;8.970;2023-03-04T11:42:32;4.73;;;2.30;;
18780;SDS011;9519;51.890;8.970;2023-03-04T11:47:47;4.77;;;2.10;;
18780;SDS011;9519;51.890;8.970;2023-03-04T11:58:46;7.47;;;3.30;;
18780;SDS011;9519;51.890;8.970;2023-03-04T12:04:15;7.90;;;2.77;;
18780;SDS011;9519;51.890;8.970;2023-03-04T12:09:38;8.67;;;2.83;;
18780;SDS011;9519;51.890;8.970;2023-03-04T12:14:50;11.60;;;2.90;;
18780;SDS011;9519;51.890;8.970;2023-03-04T12:20:26;7.67;;;2.67;;
18780;SDS011;9519;51.890;8.970;2023-03-04T12:25:55;9.53;;;2.57;;
18780;SDS011;9519;51.890;8.970;2023-03-04T12:31:12;9.33;;;2.80;;
18780;SDS011;9519;51.890;8.970;2023-03-04T12:36:41;9.83;;;2.90;;
18780;SDS011;9519;51.890;8.970;2023-03-04T12:41:56;9.17;;;2.10;;
18780;SDS011;9519;51.890;8.970;2023-03-04T12:47:12;22.93;;;3.47;;
18780;SDS011;9519;51.890;8.970;2023-03-04T12:52:32;12.80;;;2.50;;
18780;SDS011;9519;51.890;8.970;2023-03-04T12:57:46;15.37;;;2.67;;
18780;SDS011;9519;51.890;8.970;2023-03-04T13:02:54;10.30;;;2.83;;
18780;SDS011;9519;51.890;8.970;2023-03-04T13:08:10;12.17;;;2.73;;
18780;SDS011;9519;51.890;8.970;2023-03-04T13:13:35;10.13;;;2.43;;
18780;SDS011;9519;51.890;8.970;2023-03-04T13:18:40;9.83;;;2.40;;
18780;SDS011;9519;51.890;8.970;2023-03-04T13:23:44;8.00;;;2.50;;
18780;SDS011;9519;51.890;8.970;2023-03-04T13:28:51;8.13;;;2.57;;
18780;SDS011;9519;51.890;8.970;2023-03-04T13:34:39;8.80;;;2.13;;
18780;SDS011;9519;51.890;8.970;2023-03-04T13:39:46;13.00;;;2.57;;
18780;SDS011;9519;51.890;8.970;2023-03-04T13:45:35;10.53;;;2.60;;
18780;SDS011;9519;51.890;8.970;2023-03-04T13:50:39;9.37;;;2.70;;
18780;SDS011;9519;51.890;8.970;2023-03-04T13:55:58;11.00;;;2.17;;
18780;SDS011;9519;51.890;8.970;2023-03-04T14:01:21;7.63;;;2.37;;
18780;SDS011;9519;51.890;8.970;2023-03-04T14:06:27;15.50;;;2.80;;
18780;SDS011;9519;51.890;8.970;2023-03-04T14:11:32;8.50;;;2.30;;
18780;SDS011;9519;51.890;8.970;2023-03-04T14:16:45;8.93;;;2.00;;
18780;SDS011;9519;51.890;8.970;2023-03-04T14:21:51;11.80;;;2.30;;
18780;SDS011;9519;51.890;8.970;2023-03-04T14:27:02;10.30;;;3.03;;
18780;SDS011;9519;51.890;8.970;2023-03-04T14:32:13;11.60;;;2.83;;
18780;SDS011;9519;51.890;8.970;2023-03-04T14:37:18;15.43;;;3.53;;
18780;SDS011;9519;51.890;8.970;2023-03-04T14:42:24;12.30;;;3.00;;
18780;SDS011;9519;51.890;8.970;2023-03-04T14:47:38;18.43;;;4.70;;
18780;SDS011;9519;51.890;8.970;2023-03-04T14:52:45;14.80;;;5.03;;
18780;SDS011;9519;51.890;8.970;2023-03-04T14:57:51;19.10;;;7.67;;
18780;SDS011;9519;51.890;8.970;2023-03-04T15:03:15;12.60;;;2.93;;
18780;SDS011;9519;51.890;8.970;2023-03-04T15:08:23;12.90;;;2.70;;
18780;SDS011;9519;51.890;8.970;2023-03-04T15:13:38;15.70;;;3.20;;
18780;SDS011;9519;51.890;8.970;2023-03-04T15:18:53;12.03;;;3.30;;
18780;SDS011;9519;51.890;8.970;2023-03-04T15:23:58;11.00;;;3.57;;
18780;SDS011;9519;51.890;8.970;2023-03-04T15:29:02;15.10;;;3.10;;
18780;SDS011;9519;51.890;8.970;2023-03-04T15:34:13;12.37;;;2.97;;
18780;SDS011;9519;51.890;8.970;2023-03-04T15:39:17;15.77;;;3.37;;
18780;SDS011;9519;51.890;8.970;2023-03-04T15:44:20;18.33;;;2.70;;
18780;SDS011;9519;51.890;8.970;2023-03-04T15:49:24;13.67;;;3.50;;
18780;SDS011;9519;51.890;8.970;2023-03-04T15:54:26;14.20;;;2.63;;
18780;SDS011;9519;51.890;8.970;2023-03-04T15:59:29;16.10;;;2.83;;
18780;SDS011;9519;51.890;8.970;2023-03-04T16:04:34;10.43;;;2.47;;
18780;SDS011;9519;51.890;8.970;2023-03-04T16:09:37;10.20;;;2.20;;
18780;SDS011;9519;51.890;8.970;2023-03-04T16:14:39;8.03;;;2.13;;
18780;SDS011;9519;51.890;8.970;2023-03-04T16:19:44;8.40;;;2.73;;
18780;SDS011;9519;51.890;8.970;2023-03-04T16:24:47;6.47;;;1.90;;
18780;SDS011;9519;51.890;8.970;2023-03-04T16:29:49;11.77;;;2.47;;
18780;SDS011;9519;51.890;8.970;2023-03-04T16:34:52;7.53;;;2.27;;
18780;SDS011;9519;51.890;8.970;2023-03-04T16:39:54;10.03;;;2.40;;
18780;SDS011;9519;51.890;8.970;2023-03-04T16:44:57;6.57;;;1.73;;
18780;SDS011;9519;51.890;8.970;2023-03-04T16:50:01;6.63;;;1.80;;
18780;SDS011;9519;51.890;8.970;2023-03-04T16:55:03;8.30;;;1.97;;
18780;SDS011;9519;51.890;8.970;2023-03-04T17:00:06;8.10;;;2.23;;
18780;SDS011;9519;51.890;8.970;2023-03-04T17:05:15;10.50;;;2.57;;
18780;SDS011;9519;51.890;8.970;2023-03-04T17:10:20;10.40;;;2.37;;
18780;SDS011;9519;51.890;8.970;2023-03-04T17:15:23;13.23;;;2.97;;
18780;SDS011;9519;51.890;8.970;2023-03-04T17:20:26;10.40;;;2.50;;
18780;SDS011;9519;51.890;8.970;2023-03-04T17:25:28;9.67;;;2.83;;
18780;SDS011;9519;51.890;8.970;2023-03-04T17:30:31;12.00;;;2.60;;
18780;SDS011;9519;51.890;8.970;2023-03-04T17:35:36;12.30;;;2.63;;
18780;SDS011;9519;51.890;8.970;2023-03-04T17:40:39;10.83;;;3.23;;
18780;SDS011;9519;51.890;8.970;2023-03-04T17:45:44;18.37;;;2.93;;
18780;SDS011;9519;51.890;8.970;2023-03-04T17:50:48;14.77;;;4.10;;
18780;SDS011;9519;51.890;8.970;2023-03-04T17:55:51;13.03;;;3.60;;
18780;SDS011;9519;51.890;8.970;2023-03-04T18:00:58;14.07;;;3.40;;
18780;SDS011;9519;51.890;8.970;2023-03-04T18:06:04;15.97;;;2.93;;
18780;SDS011;9519;51.890;8.970;2023-03-04T18:11:06;15.60;;;4.33;;
18780;SDS011;9519;51.890;8.970;2023-03-04T18:16:09;13.00;;;4.50;;
18780;SDS011;9519;51.890;8.970;2023-03-04T18:21:16;16.30;;;4.10;;
18780;SDS011;9519;51.890;8.970;2023-03-04T18:26:18;18.57;;;6.30;;
18780;SDS011;9519;51.890;8.970;2023-03-04T18:31:23;50.50;;;20.17;;
18780;SDS011;9519;51.890;8.970;2023-03-04T18:36:28;17.53;;;6.90;;
18780;SDS011;9519;51.890;8.970;2023-03-04T18:41:31;16.73;;;4.53;;
18780;SDS011;9519;51.890;8.970;2023-03-04T18:46:36;16.63;;;3.63;;
18780;SDS011;9519;51.890;8.970;2023-03-04T18:51:44;11.70;;;3.20;;
18780;SDS011;9519;51.890;8.970;2023-03-04T18:56:46;13.37;;;3.83;;
18780;SDS011;9519;51.890;8.970;2023-03-04T19:01:53;16.17;;;3.80;;
18780;SDS011;9519;51.890;8.970;2023-03-04T19:06:57;12.60;;;3.40;;
18780;SDS011;9519;51.890;8.970;2023-03-04T19:11:59;14.73;;;3.90;;
18780;SDS011;9519;51.890;8.970;2023-03-04T19:17:02;12.13;;;3.90;;
18780;SDS011;9519;51.890;8.970;2023-03-04T19:22:05;15.87;;;3.67;;
18780;SDS011;9519;51.890;8.970;2023-03-04T19:27:07;11.73;;;3.13;;
18780;SDS011;9519;51.890;8.970;2023-03-04T19:32:10;14.00;;;3.50;;
18780;SDS011;9519;51.890;8.970;2023-03-04T19:37:13;15.53;;;3.43;;
18780;SDS011;9519;51.890;8.970;2023-03-04T19:42:16;13.13;;;3.27;;
18780;SDS011;9519;51.890;8.970;2023-03-04T19:47:18;14.47;;;3.93;;
18780;SDS011;9519;51.890;8.970;2023-03-04T19:52:24;12.57;;;2.90;;
18780;SDS011;9519;51.890;8.970;2023-03-04T19:57:26;13.93;;;3.00;;
18780;SDS011;9519;51.890;8.970;2023-03-04T20:02:28;11.47;;;2.83;;
18780;SDS011;9519;51.890;8.970;2023-03-04T20:07:32;14.07;;;2.83;;
18780;SDS011;9519;51.890;8.970;2023-03-04T20:12:34;13.40;;;3.27;;
18780;SDS011;9519;51.890;8.970;2023-03-04T20:17:36;14.33;;;2.73;;
18780;SDS011;9519;51.890;8.970;2023-03-04T20:22:40;13.53;;;3.63;;
18780;SDS011;9519;51.890;8.970;2023-03-04T20:27:42;11.60;;;2.90;;
18780;SDS011;9519;51.890;8.970;2023-03-04T20:32:44;10.07;;;2.97;;
18780;SDS011;9519;51.890;8.970;2023-03-04T20:37:49;12.07;;;3.50;;
18780;SDS011;9519;51.890;8.970;2023-03-04T20:42:51;13.83;;;2.90;;
18780;SDS011;9519;51.890;8.970;2023-03-04T20:47:53;12.60;;;3.40;;
18780;SDS011;9519;51.890;8.970;2023-03-04T20:52:56;8.53;;;2.70;;
18780;SDS011;9519;51.890;8.970;2023-03-04T20:57:58;13.77;;;2.80;;
18780;SDS011;9519;51.890;8.970;2023-03-04T21:03:00;13.00;;;2.90;;
18780;SDS011;9519;51.890;8.970;2023-03-04T21:08:04;16.13;;;3.27;;
18780;SDS011;9519;51.890;8.970;2023-03-04T21:13:09;13.83;;;2.90;;
18780;SDS011;9519;51.890;8.970;2023-03-04T21:18:15;13.00;;;3.13;;
18780;SDS011;9519;51.890;8.970;2023-03-04T21:23:19;15.40;;;3.27;;
18780;SDS011;9519;51.890;8.970;2023-03-04T21:28:21;18.67;;;4.20;;
18780;SDS011;9519;51.890;8.970;2023-03-04T21:33:30;20.97;;;7.87;;
18780;SDS011;9519;51.890;8.970;2023-03-04T21:38:36;16.20;;;4.53;;
18780;SDS011;9519;51.890;8.970;2023-03-04T21:43:38;19.03;;;3.93;;
18780;SDS011;9519;51.890;8.970;2023-03-04T21:48:41;9.90;;;3.00;;
18780;SDS011;9519;51.890;8.970;2023-03-04T21:53:47;13.73;;;3.40;;
18780;SDS011;9519;51.890;8.970;2023-03-04T21:58:50;18.17;;;4.60;;
18780;SDS011;9519;51.890;8.970;2023-03-04T22:03:52;17.30;;;3.60;;
18780;SDS011;9519;51.890;8.970;2023-03-04T22:08:55;19.50;;;4.30;;
18780;SDS011;9519;51.890;8.970;2023-03-04T22:13:58;12.23;;;3.00;;
18780;SDS011;9519;51.890;8.970;2023-03-04T22:19:13;15.80;;;3.10;;
18780;SDS011;9519;51.890;8.970;2023-03-04T22:24:17;12.80;;;3.20;;
18780;SDS011;9519;51.890;8.970;2023-03-04T22:29:32;12.17;;;2.97;;
18780;SDS011;9519;51.890;8.970;2023-03-04T22:34:37;10.43;;;2.60;;
18780;SDS011;9519;51.890;8.970;2023-03-04T22:39:42;14.33;;;3.50;;
18780;SDS011;9519;51.890;8.970;2023-03-04T22:44:44;11.50;;;2.93;;
18780;SDS011;9519;51.890;8.970;2023-03-04T22:49:46;10.70;;;2.73;;
18780;SDS011;9519;51.890;8.970;2023-03-04T22:54:50;12.63;;;3.30;;
18780;SDS011;9519;51.890;8.970;2023-03-04T22:59:52;11.43;;;3.37;;
18780;SDS011;9519;51.890;8.970;2023-03-04T23:04:54;16.10;;;3.00;;
18780;SDS011;9519;51.890;8.970;2023-03-04T23:09:59;9.43;;;2.50;;
18780;SDS011;9519;51.890;8.970;2023-03-04T23:15:01;15.67;;;2.90;;
18780;SDS011;9519;51.890;8.970;2023-03-04T23:20:05;11.27;;;2.40;;
18780;SDS011;9519;51.890;8.970;2023-03-04T23:25:12;11.50;;;2.93;;
18780;SDS011;9519;51.890;8.970;2023-03-04T23:30:16;11.83;;;2.20;;
18780;SDS011;9519;51.890;8.970;2023-03-04T23:35:18;10.60;;;2.70;;
18780;SDS011;9519;51.890;8.970;2023-03-04T23:40:21;12.90;;;2.73;;
18780;SDS011;9519;51.890;8.970;2023-03-04T23:45:23;9.33;;;2.70;;
18780;SDS011;9519;51.890;8.970;2023-03-04T23:50:26;12.83;;;2.60;;
18780;SDS011;9519;51.890;8.970;2023-03-04T23:55:29;13.17;;;2.47;;
